Time;durP1;ratioP1;P1;durP2;ratioP2;P2;SDS_P1;SDS_P2;PMS_P1;PMS_P2;Temp;Humidity;BMP_temperature;BMP_pressure;BME280_temperature;BME280_humidity;BME280_pressure;Samples;Min_cycle;Max_cycle;Signal;HPM_P1;HPM_P2
2022/06/27 00:01:09;;;;;;;3.47;3.20;;;;;;;17.54;100.00;63813.84;5043301;28;20396;-78
2022/06/27 00:03:36;;;;;;;3.55;3.25;;;;;;;17.56;100.00;63812.81;5041516;28;20198;-79
2022/06/27 00:06:03;;;;;;;3.67;3.38;;;;;;;17.53;100.00;63812.28;5044806;28;20233;-79
2022/06/27 00:08:30;;;;;;;4.22;3.53;;;;;;;17.48;100.00;63807.06;5046169;28;20276;-80
2022/06/27 00:10:57;;;;;;;4.30;3.97;;;;;;;17.47;100.00;63806.53;5049163;28;20280;-80
2022/06/27 00:13:24;;;;;;;4.07;3.78;;;;;;;17.48;100.00;63804.50;5048530;28;20224;-80
2022/06/27 00:15:51;;;;;;;6.25;3.85;;;;;;;17.47;100.00;63806.53;5046852;28;20221;-80
2022/06/27 00:18:19;;;;;;;5.93;3.88;;;;;;;17.46;100.00;63802.94;5050424;28;20205;-79
2022/06/27 00:20:47;;;;;;;4.72;4.28;;;;;;;17.44;100.00;63800.31;5050324;28;20217;-81
2022/06/27 00:23:15;;;;;;;4.05;3.75;;;;;;;17.39;100.00;63792.53;5055349;28;20255;-81
2022/06/27 00:25:42;;;;;;;5.43;4.85;;;;;;;17.36;100.00;63791.97;5056075;28;20255;-81
2022/06/27 00:28:09;;;;;;;4.70;4.30;;;;;;;17.37;100.00;63793.53;5052414;28;20378;-79
2022/06/27 00:30:37;;;;;;;6.88;5.55;;;;;;;17.33;100.00;63789.91;5057137;28;20416;-82
2022/06/27 00:33:04;;;;;;;4.13;3.80;;;;;;;17.25;100.00;63781.56;5042531;28;20201;-81
2022/06/27 00:35:33;;;;;;;5.45;5.03;;;;;;;17.22;100.00;63778.44;5049706;28;20316;-80
2022/06/27 00:37:59;;;;;;;7.10;5.25;;;;;;;17.23;100.00;63782.06;5050455;28;20227;-80
2022/06/27 00:40:26;;;;;;;5.40;5.00;;;;;;;17.17;100.00;63775.31;5048355;28;20217;-79
2022/06/27 00:42:53;;;;;;;4.90;4.50;;;;;;;17.15;100.00;63773.22;5049797;28;20212;-80
2022/06/27 00:45:20;;;;;;;5.88;5.38;;;;;;;17.24;100.00;63780.53;5049543;28;20240;-80
2022/06/27 00:47:47;;;;;;;8.25;5.03;;;;;;;17.17;100.00;63775.81;5048931;28;20208;-80
2022/06/27 00:50:14;;;;;;;4.03;3.67;;;;;;;17.17;100.00;63773.25;5036743;28;20218;-80
2022/06/27 00:52:43;;;;;;;5.55;5.15;;;;;;;17.17;100.00;63773.25;5046139;28;20209;-80
2022/06/27 00:55:10;;;;;;;4.75;4.35;;;;;;;17.15;100.00;63770.66;5049951;28;20217;-81
2022/06/27 00:57:43;;;;;;;5.22;4.93;;;;;;;17.12;100.00;63768.03;5048727;28;20261;-82
2022/06/27 01:00:11;;;;;;;6.38;5.35;;;;;;;17.08;100.00;63763.88;5042500;28;20227;-80
2022/06/27 01:02:38;;;;;;;6.50;5.88;;;;;;;16.99;100.00;63754.50;5048094;28;20490;-80
2022/06/27 01:05:06;;;;;;;5.47;5.07;;;;;;;16.94;100.00;63751.34;5048715;28;20236;-80
2022/06/27 01:07:34;;;;;;;6.65;6.10;;;;;;;16.89;100.00;63741.53;5047415;28;20281;-80
2022/06/27 01:10:03;;;;;;;6.93;6.10;;;;;;;16.65;100.00;63721.19;5028435;28;20226;-79
2022/06/27 01:12:30;;;;;;;8.23;6.10;;;;;;;16.79;100.00;63735.75;5040369;28;20443;-79
2022/06/27 01:14:57;;;;;;;7.45;6.63;;;;;;;16.84;100.00;63746.09;5046864;28;20585;-81
2022/06/27 01:17:24;;;;;;;6.47;5.97;;;;;;;16.81;100.00;63740.91;5038105;28;20208;-80
2022/06/27 01:19:51;;;;;;;7.43;6.75;;;;;;;16.76;100.00;63730.03;5048726;28;20229;-79
2022/06/27 01:22:20;;;;;;;6.75;6.15;;;;;;;16.82;100.00;63739.41;5047666;28;20240;-80
2022/06/27 01:24:48;;;;;;;7.53;5.85;;;;;;;16.76;100.00;63732.63;5068857;28;20243;-82
2022/06/27 01:27:15;;;;;;;8.27;6.35;;;;;;;16.73;100.00;63732.06;5064759;28;20205;-80
2022/06/27 01:29:44;;;;;;;6.78;5.97;;;;;;;16.65;100.00;63721.69;5058445;28;20244;-81
2022/06/27 01:32:11;;;;;;;6.05;5.55;;;;;;;16.67;100.00;63723.78;5055027;28;20205;-80
2022/06/27 01:34:38;;;;;;;6.97;5.68;;;;;;;16.63;100.00;63716.53;5060386;28;20237;-80
2022/06/27 01:37:06;;;;;;;5.75;5.15;;;;;;;16.62;100.00;63721.13;5045097;28;20244;-79
2022/06/27 01:39:35;;;;;;;5.65;5.13;;;;;;;16.63;100.00;63719.09;5046266;28;20400;-81
2022/06/27 01:42:04;;;;;;;6.53;5.90;;;;;;;16.57;100.00;63712.84;5046478;28;20213;-80
2022/06/27 01:44:34;;;;;;;6.80;6.28;;;;;;;16.55;100.00;63713.84;5043879;28;20232;-81
2022/06/27 01:47:04;;;;;;;8.43;6.25;;;;;;;16.52;100.00;63705.06;5053654;28;20186;-80
2022/06/27 01:49:33;;;;;;;6.97;6.38;;;;;;;16.45;100.00;63700.88;5050509;28;20226;-80
2022/06/27 01:52:02;;;;;;;7.90;6.50;;;;;;;16.45;100.00;63697.75;5052712;28;20204;-81
2022/06/27 01:54:30;;;;;;;7.28;6.68;;;;;;;16.39;100.00;63688.97;5032422;28;20229;-81
2022/06/27 01:56:59;;;;;;;9.32;6.35;;;;;;;16.38;100.00;63688.44;5047222;28;20197;-79
2022/06/27 01:59:29;;;;;;;8.35;6.95;;;;;;;16.43;100.00;63693.63;5042101;28;20220;-80
2022/06/27 02:01:58;;;;;;;8.27;7.38;;;;;;;16.48;100.00;63703.50;5044217;28;20253;-81
2022/06/27 02:04:26;;;;;;;7.38;6.78;;;;;;;16.53;100.00;63709.19;5045650;28;20196;-80
2022/06/27 02:06:53;;;;;;;6.75;6.15;;;;;;;16.64;100.00;63720.66;5051106;28;20197;-81
2022/06/27 02:09:20;;;;;;;7.55;6.88;;;;;;;16.73;100.00;63722.31;5035560;28;20209;-81
2022/06/27 02:11:49;;;;;;;8.68;6.55;;;;;;;16.82;100.00;63736.81;5041242;28;20258;-80
2022/06/27 02:14:18;;;;;;;7.95;7.15;;;;;;;16.82;100.00;63736.81;5029859;28;20409;-80
2022/06/27 02:16:45;;;;;;;8.63;7.55;;;;;;;16.88;100.00;63747.69;5048027;28;20202;-81
2022/06/27 02:19:13;;;;;;;8.32;6.82;;;;;;;16.83;100.00;63742.47;5047103;28;20208;-81
2022/06/27 02:21:42;;;;;;;6.85;6.25;;;;;;;16.78;100.00;63735.22;5041640;28;20232;-80
2022/06/27 02:24:11;;;;;;;7.18;6.47;;;;;;;16.77;100.00;63731.63;5045601;28;20423;-80
2022/06/27 02:26:38;;;;;;;7.35;6.63;;;;;;;16.70;100.00;63721.75;5045338;28;20229;-79
2022/06/27 02:29:08;;;;;;;8.40;7.60;;;;;;;16.70;100.00;63726.38;5043857;28;20488;-81
2022/06/27 02:31:44;;;;;;;7.53;6.60;;;;;;;16.69;100.00;63722.75;5043477;28;20204;-80
2022/06/27 02:34:13;;;;;;;6.60;5.97;;;;;;;16.66;100.00;63722.22;5045530;28;20189;-80
2022/06/27 02:36:41;;;;;;;6.57;6.07;;;;;;;16.57;100.00;63710.28;5045808;28;20366;-80
2022/06/27 02:39:09;;;;;;;8.10;6.53;;;;;;;16.53;100.00;63709.19;5044959;28;20193;-80
2022/06/27 02:41:40;;;;;;;7.05;5.57;;;;;;;16.51;100.00;63709.72;5046388;28;20257;-80
2022/06/27 02:44:08;;;;;;;5.80;5.20;;;;;;;16.52;100.00;63702.50;5046184;28;20194;-80
2022/06/27 02:46:39;;;;;;;5.70;5.25;;;;;;;16.52;100.00;63713.31;5045454;28;20296;-80
2022/06/27 02:49:07;;;;;;;5.63;5.07;;;;;;;16.52;100.00;63705.06;5036792;28;20216;-80
2022/06/27 02:51:41;;;;;;;4.80;4.40;;;;;;;16.51;100.00;63704.03;5045281;28;20486;-80
2022/06/27 02:54:11;;;;;;;4.60;4.13;;;;;;;16.46;100.00;63699.38;5046144;28;20193;-80
2022/06/27 02:56:44;;;;;;;6.72;4.60;;;;;;;16.49;100.00;63705.06;5045718;28;20197;-81
2022/06/27 02:59:15;;;;;;;5.35;5.00;;;;;;;16.43;100.00;63701.34;5041364;28;20198;-81
2022/06/27 03:01:44;;;;;;;5.13;4.72;;;;;;;16.55;100.00;63713.34;5043611;28;20540;-80
2022/06/27 03:04:13;;;;;;;4.70;4.40;;;;;;;16.55;100.00;63708.22;5044695;28;20429;-81
2022/06/27 03:06:40;;;;;;;5.03;4.25;;;;;;;16.56;100.00;63712.34;5043885;28;20225;-80
2022/06/27 03:09:07;;;;;;;5.50;5.03;;;;;;;16.65;100.00;63718.59;5045456;28;20202;-79
2022/06/27 03:11:35;;;;;;;8.18;4.43;;;;;;;16.72;100.00;63731.03;5043898;28;20398;-80
2022/06/27 03:14:02;;;;;;;24.58;18.55;;;;;;;16.78;100.00;63734.69;5044798;28;20197;-81
2022/06/27 03:16:29;;;;;;;15.65;12.85;;;;;;;16.84;100.00;63741.47;5030002;28;20268;-80
2022/06/27 03:18:57;;;;;;;5.43;4.90;;;;;;;16.93;100.00;63750.31;5043951;28;20209;-79
2022/06/27 03:21:24;;;;;;;5.15;4.63;;;;;;;16.94;100.00;63748.78;5045228;28;20222;-79
2022/06/27 03:23:51;;;;;;;5.50;4.65;;;;;;;16.95;100.00;63754.97;5039465;28;20276;-80
2022/06/27 03:26:19;;;;;;;4.35;4.15;;;;;;;17.02;100.00;63757.09;5044938;28;20235;-80
2022/06/27 03:28:46;;;;;;;32.67;23.30;;;;;;;17.11;100.00;63766.47;5044164;28;20201;-80
2022/06/27 03:31:13;;;;;;;5.80;5.32;;;;;;;17.11;100.00;63769.56;5043781;28;20237;-81
2022/06/27 03:33:41;;;;;;;7.68;4.88;;;;;;;17.25;100.00;63786.72;5040159;28;20198;-80
2022/06/27 03:36:10;;;;;;;7.38;4.70;;;;;;;17.34;100.00;63793.50;5045006;28;20228;-80
2022/06/27 03:38:37;;;;;;;6.85;4.30;;;;;;;17.47;100.00;63808.59;5043905;28;20387;-80
2022/06/27 03:41:04;;;;;;;4.68;4.28;;;;;;;17.59;100.00;63815.94;5045096;28;20225;-80
2022/06/27 03:43:31;;;;;;;5.15;4.65;;;;;;;17.65;100.00;63825.31;5041383;28;20197;-80
2022/06/27 03:45:59;;;;;;;5.50;4.45;;;;;;;17.76;100.00;63836.75;5044906;28;20240;-80
2022/06/27 03:51:12;;;;;;;7.80;4.32;;;;;;;17.85;100.00;63843.03;5039728;28;20293;-81
2022/06/27 03:53:39;;;;;;;4.50;4.10;;;;;;;18.06;100.00;63864.91;5045224;28;20203;-80
2022/06/27 03:56:06;;;;;;;4.43;4.13;;;;;;;18.08;100.00;63864.94;5046301;28;20274;-80
2022/06/27 03:58:33;;;;;;;8.55;7.22;;;;;;;18.33;100.00;63895.59;5046394;28;20208;-81
2022/06/27 04:01:01;;;;;;;6.30;4.30;;;;;;;18.40;100.00;63900.88;5036474;28;20289;-79
2022/06/27 04:03:29;;;;;;;4.80;4.43;;;;;;;18.46;100.00;63906.59;5026367;28;20197;-81
2022/06/27 04:05:55;;;;;;;4.60;4.30;;;;;;;18.56;100.00;63914.44;5034525;28;20261;-81
2022/06/27 04:08:24;;;;;;;5.13;4.68;;;;;;;18.67;100.00;63927.97;5044869;28;20260;-80
2022/06/27 04:10:51;;;;;;;7.45;5.20;;;;;;;18.84;100.00;63951.38;5043777;28;20224;-81
2022/06/27 04:13:18;;;;;;;4.78;4.47;;;;;;;18.86;100.00;63950.84;5044689;28;20197;-80
2022/06/27 04:15:44;;;;;;;6.72;5.00;;;;;;;18.92;100.00;63959.16;5043949;28;20284;-80
2022/06/27 04:18:12;;;;;;;6.07;5.55;;;;;;;19.04;100.00;63969.63;5041120;28;20198;-79
2022/06/27 04:20:42;;;;;;;5.90;5.40;;;;;;;19.18;100.00;63986.28;5042327;28;20221;-80
2022/06/27 04:23:09;;;;;;;4.82;4.40;;;;;;;19.32;100.00;63998.84;5044619;28;20198;-80
2022/06/27 04:25:37;;;;;;;5.20;4.80;;;;;;;19.43;100.00;64007.22;5045660;28;20283;-80
2022/06/27 04:28:05;;;;;;;6.03;5.32;;;;;;;19.58;100.00;64025.44;5037022;28;20214;-80
2022/06/27 04:30:47;;;;;;;6.07;4.82;;;;;;;19.69;100.00;64026.56;5045175;28;20221;-81
2022/06/27 04:33:14;;;;;;;6.35;4.65;;;;;;;19.88;100.00;64056.22;5049570;28;20207;-81
2022/06/27 04:35:46;;;;;;;7.25;4.50;;;;;;;20.00;100.00;64064.06;5065383;28;20243;-84
2022/06/27 04:38:13;;;;;;;4.97;4.13;;;;;;;20.17;100.00;64087.00;5041809;28;20201;-80
2022/06/27 04:40:43;;;;;;;4.13;3.63;;;;;;;20.17;100.00;64083.91;5044859;28;20221;-83
2022/06/27 04:43:11;;;;;;;4.57;4.10;;;;;;;20.27;100.00;64100.03;5042916;28;20198;-82
2022/06/27 04:45:39;;;;;;;6.15;5.65;;;;;;;19.84;100.00;64054.63;5043167;28;20595;-80
2022/06/27 04:48:07;;;;;;;6.43;5.95;;;;;;;19.57;100.00;64026.47;5029170;28;20505;-80
2022/06/27 04:50:42;;;;;;;7.28;5.80;;;;;;;19.36;100.00;64000.41;5040979;28;20496;-83
2022/06/27 04:53:13;;;;;;;8.20;7.40;;;;;;;19.07;100.00;63967.59;5045582;28;20193;-80
2022/06/27 04:55:42;;;;;;;12.05;8.07;;;;;;;19.01;100.00;63965.97;5047877;28;20228;-81
2022/06/27 04:58:11;;;;;;;12.15;7.43;;;;;;;18.86;100.00;63953.44;5049077;28;20201;-81
2022/06/27 05:00:38;;;;;;;9.55;7.00;;;;;;;19.21;100.00;63986.81;5052061;28;20465;-80
2022/06/27 05:03:05;;;;;;;8.90;6.82;;;;;;;19.26;100.00;63997.72;5053443;28;20271;-80
2022/06/27 05:05:32;;;;;;;6.13;5.30;;;;;;;19.25;100.00;63993.59;5047614;28;20229;-80
2022/06/27 05:08:00;;;;;;;6.45;5.93;;;;;;;19.44;100.00;64011.38;5047556;28;20260;-79
2022/06/27 05:10:28;;;;;;;5.90;5.40;;;;;;;19.64;100.00;64034.28;5044584;28;20263;-80
2022/06/27 05:13:02;;;;;;;12.32;6.78;;;;;;;19.77;100.00;64044.72;5071454;28;20212;-80
2022/06/27 05:15:29;;;;;;;7.22;6.53;;;;;;;19.34;100.00;63995.78;5052637;28;20220;-80
2022/06/27 05:17:56;;;;;;;8.20;7.03;;;;;;;19.48;100.00;64017.59;5043979;28;20198;-80
2022/06/27 05:20:23;;;;;;;7.65;6.93;;;;;;;19.41;100.00;64007.72;5046827;28;20225;-80
2022/06/27 05:22:50;;;;;;;8.93;7.03;;;;;;;19.42;100.00;64006.16;5047587;28;20201;-80
2022/06/27 05:25:17;;;;;;;7.85;7.10;;;;;;;19.58;100.00;64027.50;5046866;28;20538;-80
2022/06/27 05:27:44;;;;;;;9.90;6.95;;;;;;;19.65;100.00;64030.16;5046567;28;20193;-80
2022/06/27 05:30:13;;;;;;;7.82;7.03;;;;;;;19.69;100.00;64033.81;5047792;28;20253;-79
2022/06/27 05:32:41;;;;;;;7.63;6.65;;;;;;;19.61;100.00;64025.44;5048683;28;20225;-80
2022/06/27 05:35:08;;;;;;;11.52;6.70;;;;;;;19.86;100.00;64054.66;5049927;28;20220;-80
2022/06/27 05:37:37;;;;;;;7.70;6.90;;;;;;;19.97;100.00;64068.69;5047225;28;20209;-81
2022/06/27 05:40:05;;;;;;;7.35;6.70;;;;;;;20.04;100.00;64070.31;5049574;28;20236;-80
2022/06/27 05:42:34;;;;;;;9.30;6.30;;;;;;;20.01;100.00;64065.13;5047062;28;20263;-80
2022/06/27 05:45:03;;;;;;;8.95;7.97;;;;;;;19.93;100.00;64064.00;5046825;28;20403;-80
2022/06/27 05:47:31;;;;;;;7.38;6.63;;;;;;;20.10;100.00;64081.75;5048081;28;20280;-81
2022/06/27 05:50:00;;;;;;;10.80;7.20;;;;;;;20.11;100.00;64077.63;5048596;28;20213;-82
2022/06/27 05:52:28;;;;;;;10.98;7.13;;;;;;;20.31;100.00;64098.50;5048300;28;20189;-81
2022/06/27 05:54:54;;;;;;;7.38;6.68;;;;;;;20.22;100.00;64094.28;5044710;28;20213;-80
2022/06/27 05:57:24;;;;;;;14.50;7.43;;;;;;;20.05;100.00;64077.03;5048908;28;20200;-81
2022/06/27 05:59:52;;;;;;;7.03;5.93;;;;;;;20.42;100.00;64110.50;5048215;28;20633;-80
2022/06/27 06:02:19;;;;;;;6.85;6.25;;;;;;;20.74;100.00;64145.47;5046218;28;20452;-81
2022/06/27 06:04:48;;;;;;;6.93;6.20;;;;;;;21.00;99.23;64173.13;5042163;28;20237;-81
2022/06/27 06:07:15;;;;;;;9.10;6.00;;;;;;;20.83;98.84;64152.78;5041998;28;20225;-81
2022/06/27 06:09:43;;;;;;;6.80;6.20;;;;;;;20.84;98.52;64158.47;5047482;28;20452;-81
2022/06/27 06:12:12;;;;;;;7.15;6.53;;;;;;;20.79;99.00;64153.25;5047202;28;20205;-81
2022/06/27 06:14:40;;;;;;;6.75;6.03;;;;;;;20.85;97.88;64157.47;5043046;28;20236;-80
2022/06/27 06:17:07;;;;;;;8.68;6.63;;;;;;;20.91;97.20;64160.63;5047265;28;20228;-80
2022/06/27 06:19:34;;;;;;;8.20;5.85;;;;;;;20.94;98.74;64166.34;5047026;28;20420;-80
2022/06/27 06:22:03;;;;;;;6.65;6.00;;;;;;;21.04;95.15;64174.19;5046636;28;20260;-80
2022/06/27 06:24:30;;;;;;;6.47;5.85;;;;;;;21.26;95.72;64194.59;5031382;28;20222;-80
2022/06/27 06:27:00;;;;;;;11.02;5.82;;;;;;;21.41;94.37;64215.97;5028987;28;20233;-80
2022/06/27 06:29:29;;;;;;;6.65;6.05;;;;;;;21.36;94.21;64212.81;5048628;28;20232;-81
2022/06/27 06:31:56;;;;;;;13.32;6.10;;;;;;;21.54;93.93;64231.59;5046994;28;20212;-79
2022/06/27 06:34:23;;;;;;;6.45;5.32;;;;;;;21.63;91.01;64238.94;5046782;28;20240;-79
2022/06/27 06:36:50;;;;;;;7.50;6.10;;;;;;;21.79;91.81;64255.66;5042157;28;20201;-80
2022/06/27 06:39:18;;;;;;;5.78;5.18;;;;;;;21.69;94.08;64242.09;5047203;28;20197;-80
2022/06/27 06:41:45;;;;;;;6.15;5.57;;;;;;;21.52;91.62;64230.03;5040590;28;20280;-81
2022/06/27 06:44:12;;;;;;;6.28;5.40;;;;;;;21.68;89.16;64243.66;5042168;28;20208;-81
2022/06/27 06:46:40;;;;;;;4.88;4.50;;;;;;;22.00;87.75;64279.19;5045194;28;20233;-81
2022/06/27 06:49:09;;;;;;;5.40;5.05;;;;;;;21.97;82.60;64270.84;5048422;28;20242;-81
2022/06/27 06:51:39;;;;;;;5.05;4.63;;;;;;;22.11;81.63;64286.00;5041474;28;20216;-79
2022/06/27 06:54:07;;;;;;;5.75;5.07;;;;;;;22.44;82.60;64322.56;5050553;28;20197;-83
2022/06/27 06:56:36;;;;;;;7.55;5.43;;;;;;;22.60;84.48;64344.50;5042405;28;20212;-79
2022/06/27 06:59:05;;;;;;;6.72;5.38;;;;;;;22.61;85.40;64343.47;5048232;28;20261;-78
2022/06/27 07:01:33;;;;;;;7.72;6.43;;;;;;;22.39;81.62;64325.13;5048962;28;20217;-79
2022/06/27 07:04:01;;;;;;;9.40;6.43;;;;;;;22.48;81.69;64322.09;5046525;28;20261;-80
2022/06/27 07:06:29;;;;;;;8.13;6.60;;;;;;;22.45;83.62;64323.63;5047764;28;20352;-80
2022/06/27 07:08:58;;;;;;;7.60;6.22;;;;;;;22.63;85.21;64342.44;5046395;28;20243;-79
2022/06/27 07:11:25;;;;;;;7.57;6.57;;;;;;;22.61;83.96;64338.28;5057899;28;20221;-80
2022/06/27 07:13:54;;;;;;;7.40;6.47;;;;;;;22.59;85.29;64340.88;5063939;28;20248;-80
2022/06/27 07:16:21;;;;;;;9.75;7.18;;;;;;;22.37;85.80;64323.56;5048624;28;20225;-80
2022/06/27 07:18:49;;;;;;;8.80;7.70;;;;;;;22.42;87.16;64323.59;5048809;28;20217;-80
2022/06/27 07:21:18;;;;;;;13.00;6.88;;;;;;;22.76;85.72;64356.06;5045306;28;20225;-80
2022/06/27 07:23:47;;;;;;;7.70;6.93;;;;;;;22.83;80.94;64363.38;5044087;28;20213;-80
2022/06/27 07:26:16;;;;;;;12.98;7.35;;;;;;;22.77;81.09;64355.03;5028758;28;20218;-80
2022/06/27 07:28:43;;;;;;;10.90;7.38;;;;;;;22.85;81.67;64362.84;5043623;28;20239;-80
2022/06/27 07:31:14;;;;;;;7.65;6.80;;;;;;;22.77;79.32;64357.09;5048762;28;20225;-79
2022/06/27 07:33:41;;;;;;;7.68;6.82;;;;;;;22.92;79.86;64373.28;5048779;28;20205;-80
2022/06/27 07:36:11;;;;;;;9.55;6.00;;;;;;;22.82;77.91;64362.31;5034224;28;20217;-79
2022/06/27 07:38:39;;;;;;;8.20;6.60;;;;;;;22.86;77.78;64369.09;5037424;28;20198;-80
2022/06/27 07:41:07;;;;;;;9.65;6.10;;;;;;;22.91;79.26;64374.34;5049786;28;20221;-80
2022/06/27 07:43:34;;;;;;;7.55;6.55;;;;;;;22.90;76.98;64368.59;5042215;28;20213;-78
2022/06/27 07:46:04;;;;;;;11.68;5.90;;;;;;;22.79;76.09;64359.19;5046862;28;20534;-80
2022/06/27 07:48:33;;;;;;;5.43;4.30;;;;;;;23.01;71.51;64379.06;5046847;28;20204;-80
2022/06/27 07:51:00;;;;;;;5.80;5.40;;;;;;;23.18;72.97;64396.84;5046571;28;20224;-80
2022/06/27 07:53:29;;;;;;;9.15;5.38;;;;;;;23.09;71.09;64390.53;5028475;28;20198;-82
2022/06/27 07:55:58;;;;;;;7.97;4.55;;;;;;;23.07;67.79;64391.06;5028571;28;20224;-79
2022/06/27 07:58:30;;;;;;;4.47;4.28;;;;;;;23.10;65.48;64389.00;5045925;28;20206;-80
2022/06/27 08:00:58;;;;;;;7.18;4.80;;;;;;;23.04;68.04;64387.91;5041460;28;20222;-80
2022/06/27 08:03:39;;;;;;;5.07;4.50;;;;;;;23.17;69.18;64396.31;5028914;28;20198;-80
2022/06/27 08:06:11;;;;;;;5.18;4.78;;;;;;;23.17;67.04;64403.59;5027753;28;20408;-80
2022/06/27 08:08:41;;;;;;;5.10;4.60;;;;;;;23.25;60.67;64404.69;5026756;28;20194;-79
2022/06/27 08:11:10;;;;;;;5.18;4.78;;;;;;;23.06;59.62;64389.47;5049358;28;20251;-79
2022/06/27 08:13:38;;;;;;;5.45;4.95;;;;;;;23.38;61.81;64428.72;5070463;28;20206;-79
2022/06/27 08:16:06;;;;;;;4.93;4.43;;;;;;;23.49;63.56;64429.81;5072770;28;20262;-78
2022/06/27 08:18:35;;;;;;;4.68;4.28;;;;;;;23.79;64.21;64463.81;5063755;28;20221;-79
2022/06/27 08:21:02;;;;;;;5.45;5.05;;;;;;;24.04;61.97;64492.06;5031446;28;20218;-79
2022/06/27 08:23:31;;;;;;;4.93;4.53;;;;;;;23.48;60.65;64428.78;5044399;28;20506;-79
2022/06/27 08:25:59;;;;;;;5.18;4.65;;;;;;;23.77;60.86;64461.72;5048384;28;20264;-80
2022/06/27 08:28:28;;;;;;;7.07;5.28;;;;;;;23.77;61.68;64461.19;5038361;28;20568;-79
2022/06/27 08:30:57;;;;;;;4.85;4.40;;;;;;;24.01;62.62;64483.72;5046667;28;20224;-79
2022/06/27 08:33:25;;;;;;;4.68;4.32;;;;;;;24.27;60.21;64510.94;5052156;28;20225;-79
2022/06/27 08:35:52;;;;;;;5.43;4.50;;;;;;;24.61;60.52;64548.63;5046605;28;20217;-80
2022/06/27 08:38:22;;;;;;;5.05;4.53;;;;;;;24.62;60.89;64552.81;5041956;28;20200;-79
2022/06/27 08:40:51;;;;;;;4.53;4.20;;;;;;;24.91;62.43;64580.59;5030802;28;20224;-80
2022/06/27 08:43:18;;;;;;;4.53;4.22;;;;;;;25.22;58.15;64609.91;5044089;28;20272;-80
2022/06/27 08:45:46;;;;;;;6.25;4.10;;;;;;;25.37;54.04;64625.13;5048605;28;20279;-80
2022/06/27 08:48:14;;;;;;;4.55;4.22;;;;;;;25.63;56.36;64660.72;5045479;28;20240;-80
2022/06/27 08:50:42;;;;;;;4.60;4.25;;;;;;;25.70;56.47;64664.91;5050968;28;20213;-80
2022/06/27 08:53:13;;;;;;;6.35;4.70;;;;;;;25.60;55.97;64654.97;5048861;28;20487;-78
2022/06/27 08:55:45;;;;;;;5.28;4.45;;;;;;;25.96;55.78;64689.56;5048161;28;20244;-80
2022/06/27 08:58:14;;;;;;;4.72;4.28;;;;;;;26.33;52.90;64728.38;5052243;28;20228;-80
2022/06/27 09:00:45;;;;;;;5.03;4.60;;;;;;;26.57;50.19;64753.53;5049734;28;20231;-76
2022/06/27 09:03:12;;;;;;;5.65;4.60;;;;;;;26.42;49.97;64734.69;5038724;28;20232;-75
2022/06/27 09:05:40;;;;;;;6.38;4.63;;;;;;;26.33;52.39;64728.38;5046140;28;20300;-76
2022/06/27 09:08:09;;;;;;;5.20;4.90;;;;;;;25.89;53.96;64679.59;5037709;28;20244;-75
2022/06/27 09:10:39;;;;;;;5.18;4.78;;;;;;;25.62;55.45;64651.84;5044660;28;20221;-75
2022/06/27 09:13:08;;;;;;;5.30;4.80;;;;;;;25.69;53.90;64661.28;5041348;28;20210;-75
2022/06/27 09:15:54;;;;;;;5.07;4.53;;;;;;;25.91;53.54;64682.25;5039919;28;20218;-75
2022/06/27 09:18:22;;;;;;;5.40;4.90;;;;;;;24.99;54.71;64591.56;5046240;28;20212;-74
2022/06/27 09:20:55;;;;;;;5.65;5.15;;;;;;;24.69;55.41;64559.63;5046459;28;20217;-75
2022/06/27 09:23:43;;;;;;;5.90;4.90;;;;;;;24.49;57.56;64533.47;5041861;28;20205;-75
2022/06/27 09:26:16;;;;;;;5.85;5.30;;;;;;;24.26;56.84;64514.56;5043626;28;20267;-75
2022/06/27 09:28:47;;;;;;;6.22;4.88;;;;;;;24.55;55.57;64548.06;5026816;28;20463;-76
2022/06/27 09:31:38;;;;;;;9.52;5.03;;;;;;;24.61;55.90;64551.22;5039570;28;20273;-75
2022/06/27 09:34:09;;;;;;;4.70;4.40;;;;;;;25.07;54.48;64594.22;5042557;28;20206;-77
2022/06/27 09:36:38;;;;;;;4.38;4.07;;;;;;;25.38;52.97;64626.19;5044370;28;20193;-75
2022/06/27 09:39:07;;;;;;;4.20;3.90;;;;;;;25.11;53.10;64598.38;5040989;28;20190;-75
2022/06/27 09:41:36;;;;;;;8.10;4.07;;;;;;;25.04;51.28;64596.25;5042455;28;20201;-75
2022/06/27 09:44:06;;;;;;;3.97;3.75;;;;;;;25.34;51.88;64619.34;5043849;28;20206;-75
2022/06/27 09:46:38;;;;;;;4.93;4.40;;;;;;;25.53;51.18;64647.63;5043947;28;20201;-74
2022/06/27 09:49:12;;;;;;;4.10;3.80;;;;;;;25.67;50.20;64661.78;5043949;28;20201;-76
2022/06/27 09:51:39;;;;;;;4.57;4.30;;;;;;;25.63;49.37;64652.34;5044705;28;20203;-75
2022/06/27 09:54:10;;;;;;;3.88;3.67;;;;;;;25.80;49.81;64668.09;5045799;28;20204;-74
2022/06/27 09:56:41;;;;;;;4.35;3.95;;;;;;;26.15;50.34;64709.50;5044506;28;20229;-75
2022/06/27 09:59:10;;;;;;;4.22;3.92;;;;;;;26.49;48.58;64745.13;5041812;28;20189;-75
2022/06/27 10:01:41;;;;;;;5.63;4.40;;;;;;;26.28;49.49;64722.59;5044156;28;20378;-75
2022/06/27 10:04:09;;;;;;;4.28;3.97;;;;;;;26.28;49.26;64722.59;5044394;28;20364;-75
2022/06/27 10:06:38;;;;;;;5.57;4.28;;;;;;;26.79;47.98;64774.00;5044318;28;20228;-75
2022/06/27 10:09:08;;;;;;;6.03;4.10;;;;;;;27.18;45.68;64817.03;5043958;28;20240;-75
2022/06/27 10:11:36;;;;;;;4.32;3.92;;;;;;;26.62;47.10;64755.63;5044566;28;20243;-76
2022/06/27 10:14:21;;;;;;;7.05;4.25;;;;;;;25.99;49.12;64695.84;5043343;28;20553;-76
2022/06/27 10:16:54;;;;;;;5.30;3.90;;;;;;;26.23;49.12;64715.78;5043087;28;20240;-75
2022/06/27 10:19:21;;;;;;;5.07;3.75;;;;;;;26.44;49.22;64739.91;5043314;28;20205;-75
2022/06/27 10:21:49;;;;;;;4.15;3.72;;;;;;;26.58;50.32;64756.66;5043380;28;20202;-75
2022/06/27 10:24:34;;;;;;;4.72;4.43;;;;;;;26.31;49.79;64723.13;5038192;28;20447;-74
2022/06/27 10:27:06;;;;;;;4.75;3.70;;;;;;;26.02;49.43;64696.38;5042881;28;20200;-79
2022/06/27 10:29:44;;;;;;;4.28;4.07;;;;;;;25.96;51.80;64684.34;5038662;28;20225;-79
2022/06/27 10:32:44;;;;;;;3.92;3.70;;;;;;;25.90;51.17;64683.28;5041945;28;20193;-76
2022/06/27 10:35:15;;;;;;;4.20;3.70;;;;;;;25.70;52.84;64665.44;5037615;28;20240;-75
2022/06/27 10:37:44;;;;;;;4.28;4.00;;;;;;;25.50;50.59;64644.50;5037155;28;20268;-75
2022/06/27 10:40:51;;;;;;;3.83;3.58;;;;;;;25.63;49.65;64654.97;5041550;28;20403;-75
2022/06/27 10:43:43;;;;;;;3.72;3.53;;;;;;;25.77;49.89;64669.66;5042011;28;20201;-75
2022/06/27 10:46:53;;;;;;;4.40;4.05;;;;;;;25.70;50.48;64667.53;5038798;28;20221;-75
2022/06/27 10:49:24;;;;;;;4.78;3.60;;;;;;;25.69;49.43;64659.19;5042070;28;20573;-75
2022/06/27 10:51:52;;;;;;;4.03;3.45;;;;;;;26.06;50.76;64697.44;5041549;28;20452;-76
2022/06/27 10:54:19;;;;;;;3.47;3.28;;;;;;;26.48;46.29;64741.50;5042327;28;20490;-75
2022/06/27 10:56:48;;;;;;;3.60;3.35;;;;;;;26.81;47.49;64778.19;5042803;28;20514;-75
2022/06/27 10:59:57;;;;;;;4.38;3.20;;;;;;;27.14;44.46;64812.81;5043455;28;20407;-76
2022/06/27 11:02:28;;;;;;;3.33;3.13;;;;;;;26.74;45.43;64768.78;5043509;28;20201;-74
2022/06/27 11:04:57;;;;;;;3.75;3.42;;;;;;;26.59;46.66;64755.66;5044871;28;20381;-76
2022/06/27 11:07:24;;;;;;;4.72;3.67;;;;;;;26.87;52.12;64784.50;5044909;28;20221;-75
2022/06/27 11:09:51;;;;;;;3.50;3.30;;;;;;;26.89;46.71;64789.19;5043571;28;20217;-75
2022/06/27 11:12:19;;;;;;;4.10;3.80;;;;;;;26.89;48.48;64789.72;5059617;28;20528;-75
2022/06/27 11:14:50;;;;;;;5.00;3.85;;;;;;;26.72;47.48;64771.91;5063187;28;20436;-75
2022/06/27 11:17:35;;;;;;;4.03;3.78;;;;;;;26.45;48.80;64743.56;5046326;28;20197;-75
2022/06/27 11:20:26;;;;;;;4.45;3.53;;;;;;;26.80;47.91;64777.66;5042482;28;20546;-76
2022/06/27 11:22:56;;;;;;;3.60;3.40;;;;;;;27.03;48.06;64804.41;5043366;28;20205;-75
2022/06/27 11:25:27;;;;;;;3.60;3.40;;;;;;;27.33;48.55;64835.38;5043330;28;20222;-74
2022/06/27 11:27:57;;;;;;;3.92;3.53;;;;;;;27.76;47.84;64879.97;5043511;28;20275;-75
2022/06/27 11:33:19;;;;;;;3.88;3.60;;;;;;;27.73;45.50;64872.13;5044260;28;20483;-74
2022/06/27 11:35:48;;;;;;;3.35;3.20;;;;;;;27.33;45.21;64832.25;5044927;28;20260;-75
2022/06/27 11:38:22;;;;;;;3.63;3.17;;;;;;;27.02;45.80;64808.06;5043653;28;20441;-75
2022/06/27 11:41:00;;;;;;;3.92;3.72;;;;;;;27.22;45.39;64826.97;5043134;28;20223;-76
2022/06/27 11:43:56;;;;;;;3.67;3.38;;;;;;;27.48;43.78;64850.59;5043031;28;20214;-75
2022/06/27 11:46:27;;;;;;;3.55;3.33;;;;;;;27.60;45.01;64860.56;5028548;28;20280;-77